Time;durP1;ratioP1;P1;durP2;ratioP2;P2;SDS_P1;SDS_P2;PMS_P1;PMS_P2;Temp;Humidity;BMP_temperature;BMP_pressure;BME280_temperature;BME280_humidity;BME280_pressure;Samples;Min_cycle;Max_cycle;Signal;HPM_P1;HPM_P2
2020/12/04 00:03:07;;;;;;;7.25;6.28;;;;;;;4.43;70.01;99064.44;4304680;33;33593;-91
2020/12/04 00:05:57;;;;;;;8.32;5.85;;;;;;;4.48;69.71;99067.56;4319270;33;32269;-91
2020/12/04 00:09:06;;;;;;;7.87;4.50;;;;;;;4.19;70.10;99065.56;4331611;33;33128;-90
2020/12/04 00:11:56;;;;;;;6.43;5.87;;;;;;;4.34;70.44;99065.19;4319306;33;34100;-90
2020/12/04 00:15:10;;;;;;;5.10;4.30;;;;;;;4.42;69.56;99069.84;4326035;33;33484;-89
2020/12/04 00:18:00;;;;;;;3.80;2.35;;;;;;;4.25;69.95;99055.37;4319200;33;32096;-91
2020/12/04 00:21:09;;;;;;;8.00;4.40;;;;;;;4.55;69.12;99041.56;4330730;33;34208;-92
2020/12/04 00:23:58;;;;;;;3.55;3.35;;;;;;;4.19;69.87;99036.62;4317130;33;34806;-90
2020/12/04 00:27:10;;;;;;;8.05;6.18;;;;;;;4.12;70.20;99048.59;4312104;33;34641;-84
2020/12/04 00:30:00;;;;;;;7.20;6.47;;;;;;;3.97;71.16;99049.81;4317941;33;32716;-87
2020/12/04 00:33:11;;;;;;;4.12;3.90;;;;;;;4.20;69.65;99044.41;4316478;33;33056;-90
2020/12/04 00:36:00;;;;;;;4.85;3.95;;;;;;;4.10;70.12;99055.78;4316714;33;34349;-89
2020/12/04 00:39:09;;;;;;;1.83;1.35;;;;;;;3.94;71.29;99045.63;4328610;33;33475;-90
2020/12/04 00:41:59;;;;;;;5.57;4.22;;;;;;;3.84;71.30;99038.56;4304368;33;33071;-91
2020/12/04 00:45:10;;;;;;;5.00;4.57;;;;;;;3.76;71.40;99033.09;4328025;33;32775;-89
2020/12/04 00:48:24;;;;;;;6.50;4.97;;;;;;;3.78;71.62;99046.97;4318895;33;33539;-89
2020/12/04 00:51:36;;;;;;;5.07;3.72;;;;;;;3.89;71.24;99039.06;4330982;33;32949;-90
2020/12/04 00:54:25;;;;;;;6.03;5.18;;;;;;;4.27;69.41;99042.94;4313955;33;31938;-89
2020/12/04 00:57:39;;;;;;;12.18;7.55;;;;;;;3.87;70.49;99035.72;4325685;33;32656;-90
2020/12/04 01:00:48;;;;;;;7.05;5.47;;;;;;;3.69;71.24;99030.09;4326452;33;34939;-89
2020/12/04 01:03:58;;;;;;;3.72;3.42;;;;;;;3.34;72.17;99037.25;4318701;33;33879;-89
2020/12/04 01:06:45;;;;;;;5.75;2.62;;;;;;;3.31;72.45;99024.34;4309044;33;32059;-89
2020/12/04 01:09:54;;;;;;;4.45;3.05;;;;;;;3.53;71.73;99021.75;4329910;33;34051;-91
2020/12/04 01:12:43;;;;;;;5.62;4.00;;;;;;;3.52;71.54;99022.69;4331284;33;34292;-90
2020/12/04 01:15:51;;;;;;;8.07;3.92;;;;;;;3.48;71.63;99028.28;4326546;33;33978;-90
2020/12/04 01:18:41;;;;;;;7.85;5.15;;;;;;;3.39;72.09;99014.09;4297782;33;32273;-91
2020/12/04 01:21:31;;;;;;;2.45;2.35;;;;;;;3.52;71.29;99016.59;4321458;33;33795;-91
2020/12/04 01:24:19;;;;;;;14.38;6.43;;;;;;;3.40;71.98;99026.28;4318595;33;34698;-90
2020/12/04 01:27:27;;;;;;;9.23;3.87;;;;;;;3.48;71.70;99023.03;4330652;33;34065;-91
2020/12/04 01:30:17;;;;;;;17.58;7.82;;;;;;;3.27;72.02;99022.94;4318497;33;32598;-90
2020/12/04 01:33:26;;;;;;;3.67;3.15;;;;;;;3.28;72.17;99021.97;4318020;33;34378;-89
2020/12/04 01:36:19;;;;;;;6.20;4.60;;;;;;;3.32;72.10;99002.37;4318385;33;34288;-95
2020/12/04 01:39:28;;;;;;;4.90;4.55;;;;;;;3.18;72.48;99004.38;4318476;33;34329;-90
2020/12/04 01:42:18;;;;;;;5.87;4.05;;;;;;;3.19;72.43;98992.91;4330880;33;34047;-89
2020/12/04 01:45:34;;;;;;;7.12;3.58;;;;;;;3.08;72.71;98996.38;4310013;33;32602;-89
2020/12/04 01:48:19;;;;;;;5.12;3.83;;;;;;;3.27;71.79;98987.91;4316980;33;35559;-92
2020/12/04 01:51:28;;;;;;;1.25;1.25;;;;;;;3.51;71.03;98986.81;4330272;33;34642;-87
2020/12/04 01:54:17;;;;;;;6.47;3.87;;;;;;;3.27;71.78;98986.13;4318039;33;32289;-90
2020/12/04 01:57:38;;;;;;;8.18;4.18;;;;;;;3.32;71.70;98993.66;4331364;33;34143;-90
2020/12/04 02:00:47;;;;;;;8.77;4.43;;;;;;;3.39;71.14;98966.75;4310299;33;34013;-90
2020/12/04 02:03:59;;;;;;;5.70;2.17;;;;;;;3.23;72.23;98968.09;4310231;33;33936;-90
2020/12/04 02:06:58;;;;;;;5.03;4.53;;;;;;;2.97;73.27;98949.09;4321606;33;33138;-90
2020/12/04 02:10:11;;;;;;;3.17;3.03;;;;;;;3.18;72.64;98952.66;4317948;33;32756;-93
2020/12/04 02:13:23;;;;;;;2.37;2.17;;;;;;;3.11;72.83;98945.34;4317992;33;34237;-90
2020/12/04 02:16:14;;;;;;;5.93;5.28;;;;;;;3.35;72.00;98952.19;4317834;33;34392;-90
2020/12/04 02:19:26;;;;;;;8.60;5.05;;;;;;;3.45;71.56;98945.25;4318222;33;32457;-89
2020/12/04 02:22:17;;;;;;;6.78;4.62;;;;;;;3.13;72.57;98938.22;4319444;33;32868;-90
2020/12/04 02:25:25;;;;;;;6.43;4.72;;;;;;;3.28;72.18;98932.59;4329454;33;34234;-91
2020/12/04 02:28:14;;;;;;;4.68;4.25;;;;;;;3.19;72.43;98942.97;4327386;33;33844;-93
2020/12/04 02:31:22;;;;;;;5.50;5.10;;;;;;;3.26;72.08;98937.16;4323960;33;32797;-89
2020/12/04 02:34:11;;;;;;;6.03;3.85;;;;;;;3.01;73.41;98945.25;4319016;33;34023;-90
2020/12/04 02:37:20;;;;;;;6.85;6.25;;;;;;;3.14;73.08;98939.88;4319740;33;34744;-92
2020/12/04 02:40:09;;;;;;;6.10;2.75;;;;;;;3.26;72.40;98944.19;4318987;33;34213;-90
2020/12/04 02:43:22;;;;;;;3.83;3.62;;;;;;;3.01;73.14;98934.75;4319616;33;32450;-91
2020/12/04 02:46:13;;;;;;;3.78;3.50;;;;;;;3.07;73.19;98949.19;4319727;33;33046;-90
2020/12/04 02:49:23;;;;;;;3.20;2.85;;;;;;;3.25;72.25;98948.63;4319787;33;34209;-89
2020/12/04 02:52:12;;;;;;;3.45;3.15;;;;;;;3.29;72.09;98959.69;4319392;33;33240;-90
2020/12/04 02:55:28;;;;;;;6.30;5.95;;;;;;;2.99;73.18;98955.03;4332146;33;33524;-91
2020/12/04 02:58:39;;;;;;;8.27;4.65;;;;;;;3.20;72.55;98953.38;4319668;33;33146;-90
2020/12/04 03:01:50;;;;;;;5.65;2.92;;;;;;;3.45;71.27;98937.38;4319125;33;34657;-91
2020/12/04 03:04:40;;;;;;;5.43;3.83;;;;;;;3.43;71.45;98923.50;4319615;33;33636;-90
2020/12/04 03:07:50;;;;;;;2.78;2.45;;;;;;;3.38;71.52;98920.41;4319388;33;31921;-93
2020/12/04 03:10:41;;;;;;;8.63;3.90;;;;;;;3.61;70.43;98915.97;4318868;33;33098;-90
2020/12/04 03:13:50;;;;;;;5.07;4.62;;;;;;;3.29;71.45;98913.25;4331354;33;34181;-91
2020/12/04 03:16:38;;;;;;;6.18;5.78;;;;;;;3.16;72.04;98936.19;4331561;33;33250;-89
2020/12/04 03:19:47;;;;;;;4.78;4.00;;;;;;;3.39;71.32;98942.25;4319497;33;32120;-91
2020/12/04 03:22:36;;;;;;;14.48;6.12;;;;;;;3.57;70.65;98933.78;4331875;33;33192;-91
2020/12/04 03:25:48;;;;;;;9.80;4.60;;;;;;;3.09;72.48;98942.03;4319696;33;33931;-90
2020/12/04 03:28:36;;;;;;;4.95;4.62;;;;;;;3.42;71.65;98931.53;4319496;33;32926;-90
2020/12/04 03:31:48;;;;;;;3.10;2.90;;;;;;;3.50;70.90;98919.44;4318727;33;33632;-91
2020/12/04 03:34:37;;;;;;;2.28;2.17;;;;;;;3.35;71.47;98920.66;4319167;33;33761;-89
2020/12/04 03:37:46;;;;;;;2.95;2.75;;;;;;;3.35;71.84;98927.69;4311248;33;34250;-90
2020/12/04 03:40:34;;;;;;;5.12;4.72;;;;;;;3.65;70.79;98925.25;4318894;33;33404;-89
2020/12/04 03:43:44;;;;;;;4.40;2.65;;;;;;;3.86;69.99;98920.94;4327826;33;31800;-89
2020/12/04 03:46:39;;;;;;;2.37;1.67;;;;;;;3.53;71.05;98928.88;4319219;33;33989;-90
2020/12/04 03:49:51;;;;;;;3.85;3.65;;;;;;;3.72;70.56;98929.09;4319324;33;34888;-90
2020/12/04 03:53:02;;;;;;;4.62;4.30;;;;;;;3.58;71.05;98908.31;4331350;33;32783;-91
2020/12/04 03:56:12;;;;;;;4.93;4.47;;;;;;;3.69;70.71;98911.75;4318979;33;32459;-90
2020/12/04 03:59:02;;;;;;;4.47;4.10;;;;;;;3.46;71.62;98925.91;4319183;33;32917;-90
2020/12/04 04:02:10;;;;;;;9.45;2.75;;;;;;;3.54;71.35;98909.50;4319100;33;34045;-90
2020/12/04 04:05:20;;;;;;;5.12;3.75;;;;;;;4.10;69.61;98917.13;4319029;33;33550;-90
2020/12/04 04:11:26;;;;;;;10.70;4.37;;;;;;;3.76;70.64;98931.34;4338793;33;35310;-90
2020/12/04 04:14:42;;;;;;;14.15;12.07;;;;;;;4.03;69.98;98925.63;4339458;33;35939;-90
2020/12/04 04:17:51;;;;;;;5.87;3.90;;;;;;;3.99;70.34;98929.50;4315706;33;34738;-91
2020/12/04 04:21:07;;;;;;;8.75;3.87;;;;;;;4.05;70.02;98927.19;4331213;33;31909;-89
2020/12/04 04:24:17;;;;;;;10.13;3.58;;;;;;;4.12;69.56;98923.09;4323827;33;33203;-90
2020/12/04 04:27:05;;;;;;;3.78;3.37;;;;;;;3.95;70.66;98912.25;4323149;33;34254;-89
2020/12/04 04:29:34;;;;;;;8.02;6.53;;;;;;;3.96;70.16;98912.16;4318824;33;32713;-89
2020/12/04 04:32:23;;;;;;;3.50;3.20;;;;;;;3.87;70.95;98909.44;4341531;33;33601;-90
2020/12/04 04:35:32;;;;;;;4.32;3.55;;;;;;;3.82;71.11;98899.28;4323111;33;33849;-91
2020/12/04 04:38:21;;;;;;;8.88;3.72;;;;;;;3.81;71.26;98905.50;4330926;33;34765;-90
2020/12/04 04:41:37;;;;;;;6.00;4.12;;;;;;;3.97;70.71;98923.53;4316966;33;34171;-90
2020/12/04 04:44:38;;;;;;;7.62;4.47;;;;;;;3.64;71.63;98923.59;4329790;33;31963;-90
2020/12/04 04:47:48;;;;;;;7.05;6.43;;;;;;;3.80;71.16;98937.19;4330972;33;33416;-90
2020/12/04 04:50:37;;;;;;;3.33;3.05;;;;;;;4.12;70.03;98928.38;4330685;33;33713;-90
2020/12/04 04:53:57;;;;;;;8.68;6.90;;;;;;;4.24;69.67;98930.00;4323228;33;32863;-89
2020/12/04 04:56:53;;;;;;;5.95;5.03;;;;;;;4.01;70.39;98920.53;4341501;33;33693;-92
2020/12/04 05:00:04;;;;;;;7.55;2.97;;;;;;;4.01;70.25;98911.78;4330935;33;33088;-90
2020/12/04 05:03:12;;;;;;;6.70;5.93;;;;;;;3.78;71.25;98916.25;4330953;33;33760;-88
2020/12/04 05:06:41;;;;;;;5.60;5.10;;;;;;;3.87;70.82;98917.34;4330791;33;34574;-90
2020/12/04 05:09:53;;;;;;;6.40;5.37;;;;;;;3.64;71.66;98931.47;4330825;33;31837;-91
2020/12/04 05:13:06;;;;;;;3.97;3.10;;;;;;;3.48;72.42;98934.50;4331028;33;33091;-90
2020/12/04 05:16:43;;;;;;;6.82;4.75;;;;;;;3.83;71.04;98924.63;4330819;33;34519;-91
2020/12/04 05:19:53;;;;;;;4.25;3.87;;;;;;;3.61;72.05;98916.78;4330831;32;33540;-91
2020/12/04 05:22:53;;;;;;;10.93;3.75;;;;;;;3.64;71.92;98915.69;4330756;33;33275;-89
2020/12/04 05:26:02;;;;;;;7.37;6.72;;;;;;;3.84;71.13;98925.47;4343210;33;32798;-90
2020/12/04 05:29:10;;;;;;;5.30;4.87;;;;;;;3.90;70.49;98935.50;4330294;33;34899;-89
2020/12/04 05:32:20;;;;;;;3.97;2.80;;;;;;;3.67;71.75;98958.38;4330545;33;33517;-91
2020/12/04 05:35:12;;;;;;;3.22;2.92;;;;;;;4.31;69.40;98957.50;4330932;33;32213;-90
2020/12/04 05:38:22;;;;;;;3.35;3.05;;;;;;;3.97;70.06;98958.53;4330179;33;33477;-89
2020/12/04 05:41:12;;;;;;;7.65;4.35;;;;;;;4.14;69.76;98954.56;4331583;33;34174;-90
2020/12/04 05:44:22;;;;;;;3.25;2.95;;;;;;;4.29;69.16;98951.53;4330342;33;32961;-93
2020/12/04 05:47:40;;;;;;;5.43;4.43;;;;;;;4.12;69.95;98940.69;4322365;33;32621;-89
2020/12/04 05:50:54;;;;;;;3.65;3.40;;;;;;;3.89;70.41;98949.63;4330174;33;33051;-90
2020/12/04 05:53:44;;;;;;;6.53;2.55;;;;;;;3.59;71.38;98958.16;4340878;33;34309;-89
2020/12/04 05:56:56;;;;;;;3.45;1.75;;;;;;;3.81;70.80;98955.50;4330040;33;33515;-89
2020/12/04 05:59:45;;;;;;;5.70;3.80;;;;;;;3.86;70.73;98949.87;4336325;33;31277;-84
2020/12/04 06:02:38;;;;;;;3.05;2.85;;;;;;;4.06;70.36;98949.09;4328059;33;33348;-90
2020/12/04 06:05:46;;;;;;;5.40;4.35;;;;;;;4.02;70.38;98937.12;4315555;33;35297;-91
2020/12/04 06:08:39;;;;;;;7.43;6.75;;;;;;;4.14;69.87;98942.25;4322729;33;33412;-90
2020/12/04 06:11:48;;;;;;;11.98;6.10;;;;;;;4.03;70.21;98931.75;4310220;33;32751;-93
2020/12/04 06:14:37;;;;;;;8.68;4.72;;;;;;;3.79;71.20;98960.03;4330308;33;33863;-90
2020/12/04 06:17:49;;;;;;;3.37;3.15;;;;;;;3.83;71.42;98950.94;4317972;33;34529;-88
2020/12/04 06:20:51;;;;;;;2.47;1.75;;;;;;;4.03;70.50;98958.06;4318243;33;33593;-90
2020/12/04 06:24:06;;;;;;;5.53;2.92;;;;;;;4.24;69.80;98951.06;4318017;33;32278;-90
2020/12/04 06:26:58;;;;;;;5.05;4.60;;;;;;;4.14;70.34;98955.41;4317636;33;33934;-91
2020/12/04 06:30:07;;;;;;;5.35;3.03;;;;;;;4.04;70.45;98969.41;4325516;33;34959;-89
2020/12/04 06:33:51;;;;;;;5.12;3.65;;;;;;;4.06;70.54;98983.31;4317209;33;34338;-90
2020/12/04 06:37:01;;;;;;;4.57;3.12;;;;;;;4.02;70.97;98982.72;4330269;33;34267;-90
2020/12/04 06:39:52;;;;;;;6.95;3.45;;;;;;;4.01;70.74;98973.16;4330263;33;33197;-90
2020/12/04 06:43:04;;;;;;;3.25;2.70;;;;;;;4.00;70.89;98968.00;4317670;33;34307;-90
2020/12/04 06:45:52;;;;;;;3.90;2.97;;;;;;;4.52;69.20;98973.34;4317463;33;33382;-92
2020/12/04 06:52:20;;;;;;;3.72;3.15;;;;;;;4.69;68.61;98985.91;4315674;33;33533;-90
2020/12/04 06:55:32;;;;;;;2.55;2.35;;;;;;;4.36;69.75;98980.81;4322623;33;34877;-89
2020/12/04 06:58:22;;;;;;;3.50;3.05;;;;;;;4.41;69.68;98990.00;4315474;33;34044;-90
2020/12/04 07:01:32;;;;;;;2.55;1.95;;;;;;;4.15;70.62;98987.81;4329852;33;33453;-88
2020/12/04 07:04:20;;;;;;;5.40;3.35;;;;;;;4.37;69.87;98990.38;4329410;33;33964;-90
2020/12/04 07:07:33;;;;;;;5.85;4.28;;;;;;;4.17;70.47;98975.38;4320314;33;35149;-92
2020/12/04 07:10:22;;;;;;;3.50;2.83;;;;;;;4.06;70.84;98964.87;4309529;33;34313;-91
2020/12/04 07:13:38;;;;;;;5.43;3.15;;;;;;;4.18;70.90;98959.47;4314746;33;32103;-89
2020/12/04 07:16:06;;;;;;;4.50;3.80;;;;;;;4.13;71.03;98973.94;4319726;33;33239;-90
2020/12/04 07:19:17;;;;;;;6.97;5.47;;;;;;;4.01;71.59;98970.53;4276815;33;34516;-92
2020/12/04 07:22:06;;;;;;;3.53;2.67;;;;;;;4.23;70.91;98980.13;4268962;33;33668;-90
2020/12/04 07:25:19;;;;;;;13.50;8.40;;;;;;;4.37;70.61;98987.75;4273122;33;33680;-90
2020/12/04 07:28:09;;;;;;;13.60;7.50;;;;;;;4.41;70.23;98994.41;4299436;33;33101;-89
2020/12/04 07:31:20;;;;;;;17.40;8.75;;;;;;;4.28;70.59;98997.25;4285370;33;34924;-90
2020/12/04 07:34:09;;;;;;;5.43;4.25;;;;;;;4.44;70.36;99002.91;4292543;33;33737;-90
2020/12/04 07:37:28;;;;;;;7.05;5.57;;;;;;;4.53;69.80;98996.06;4284314;33;32658;-93
2020/12/04 07:40:21;;;;;;;15.50;6.50;;;;;;;4.54;70.04;99008.28;4267168;33;33612;-95
2020/12/04 07:43:33;;;;;;;10.88;6.37;;;;;;;4.42;70.72;99011.91;4280149;33;34363;-91
2020/12/04 07:46:02;;;;;;;4.55;3.97;;;;;;;4.52;69.89;99012.84;4299055;33;34533;-94
2020/12/04 07:49:16;;;;;;;5.35;4.90;;;;;;;4.55;70.06;99005.50;4292112;33;33213;-94
2020/12/04 07:52:34;;;;;;;5.80;4.53;;;;;;;4.52;70.46;99008.38;4306581;33;33753;-93
2020/12/04 07:55:53;;;;;;;7.62;4.28;;;;;;;4.54;70.67;99014.38;4308172;33;34377;-92
2020/12/04 07:58:43;;;;;;;4.72;4.28;;;;;;;4.59;69.92;99014.00;4317991;33;34506;-94
2020/12/04 08:01:48;;;;;;;9.50;4.60;;;;;;;4.69;70.09;99010.47;4303621;33;33462;-93
2020/12/04 08:04:58;;;;;;;4.68;4.22;;;;;;;4.87;69.25;99030.03;4301325;33;32948;-89
2020/12/04 08:07:52;;;;;;;4.35;4.00;;;;;;;4.93;69.53;99019.00;4324911;33;34114;-90
2020/12/04 08:10:44;;;;;;;3.65;3.22;;;;;;;4.64;70.14;99015.28;4329596;33;34874;-90
2020/12/04 08:13:34;;;;;;;5.05;3.33;;;;;;;4.94;69.37;99011.91;4318024;33;32324;-90
2020/12/04 08:16:48;;;;;;;5.05;3.97;;;;;;;4.89;69.46;99014.94;4316182;33;33279;-90
2020/12/04 08:20:01;;;;;;;3.65;3.35;;;;;;;5.02;69.27;99015.59;4316276;33;34180;-92
2020/12/04 08:22:51;;;;;;;4.35;4.12;;;;;;;4.79;69.16;98994.75;4324949;33;32829;-90
2020/12/04 08:25:40;;;;;;;4.10;3.25;;;;;;;4.84;70.01;99005.75;4302217;33;32560;-90
2020/12/04 08:28:56;;;;;;;4.40;3.60;;;;;;;4.82;70.13;99002.41;4310833;33;33894;-92
2020/12/04 08:31:46;;;;;;;2.90;2.17;;;;;;;4.94;69.57;99004.00;4326075;33;34602;-89
2020/12/04 08:46:35;;;;;;;2.70;2.47;;;;;;;5.01;69.71;99007.81;4357106;32;32292;-89
2020/12/04 08:49:03;;;;;;;4.57;2.55;;;;;;;4.86;70.06;99009.06;4335586;32;32470;-89
2020/12/04 08:51:31;;;;;;;4.85;3.35;;;;;;;5.04;69.75;99012.81;4335728;32;33716;-90
2020/12/04 08:53:58;;;;;;;3.27;2.47;;;;;;;5.16;69.44;99011.78;4348199;32;35591;-88
2020/12/04 08:56:25;;;;;;;2.77;1.30;;;;;;;5.04;69.34;99011.03;4348512;32;34132;-89
2020/12/04 08:58:52;;;;;;;4.18;3.65;;;;;;;5.25;68.94;99016.25;4347809;32;33474;-88
2020/12/04 09:01:20;;;;;;;2.87;2.08;;;;;;;5.30;68.85;99022.84;4348323;32;33559;-87
2020/12/04 09:03:55;;;;;;;4.15;2.80;;;;;;;5.40;68.98;99028.16;4349056;32;34551;-88
2020/12/04 09:06:25;;;;;;;4.37;4.07;;;;;;;4.97;70.17;99022.19;4348456;32;34475;-86
2020/12/04 09:08:53;;;;;;;3.70;1.83;;;;;;;5.18;69.92;99020.41;4347408;32;33280;-88
2020/12/04 09:11:20;;;;;;;7.35;5.60;;;;;;;5.22;69.80;99020.03;4346625;32;33820;-88
2020/12/04 09:13:48;;;;;;;4.60;3.75;;;;;;;5.51;69.49;99021.00;4361253;32;34561;-86
2020/12/04 09:16:15;;;;;;;4.32;3.97;;;;;;;5.64;68.86;99026.88;4358013;32;32869;-88
2020/12/04 09:18:45;;;;;;;3.08;2.08;;;;;;;5.38;70.23;99023.00;4335628;32;33348;-88
2020/12/04 09:21:12;;;;;;;4.30;2.62;;;;;;;5.27;70.40;99019.63;4347523;32;34591;-88
2020/12/04 09:23:40;;;;;;;3.78;3.30;;;;;;;5.22;70.80;99020.03;4333544;32;33922;-88
2020/12/04 09:26:08;;;;;;;3.78;3.53;;;;;;;5.42;70.14;99023.59;4342694;32;34811;-87
2020/12/04 09:28:36;;;;;;;4.07;3.03;;;;;;;5.14;71.48;99016.34;4346459;32;33136;-89
2020/12/04 09:31:03;;;;;;;1.90;1.62;;;;;;;5.14;71.17;99019.81;4345993;32;33411;-87
2020/12/04 09:33:31;;;;;;;6.15;1.42;;;;;;;5.10;71.50;99007.03;4346448;32;35872;-86
2020/12/04 09:35:58;;;;;;;6.62;2.83;;;;;;;5.27;70.84;99003.81;4346135;32;34664;-88
2020/12/04 09:38:25;;;;;;;7.95;4.03;;;;;;;5.31;71.70;99005.22;4354715;32;33296;-87
2020/12/04 09:40:52;;;;;;;3.30;2.70;;;;;;;5.24;71.56;98993.50;4344997;32;34536;-87
2020/12/04 09:43:19;;;;;;;3.37;2.90;;;;;;;5.43;70.50;98991.81;4325123;32;35256;-87
2020/12/04 09:45:55;;;;;;;4.32;3.17;;;;;;;5.32;70.93;98997.19;4323191;32;34802;-87
2020/12/04 09:48:22;;;;;;;4.33;2.33;;;;;;;5.56;70.06;99008.25;4339446;32;31686;-86
2020/12/04 09:50:53;;;;;;;5.00;3.05;;;;;;;5.75;70.02;99005.69;4359890;32;34041;-88
2020/12/04 09:53:20;;;;;;;5.07;2.80;;;;;;;5.58;70.35;98995.78;4345693;32;34257;-88
2020/12/04 09:55:47;;;;;;;9.88;5.70;;;;;;;5.40;70.63;98993.88;4345760;32;33556;-88
2020/12/04 09:58:14;;;;;;;4.20;2.63;;;;;;;5.77;69.99;98990.56;4345642;32;32304;-88
2020/12/04 10:00:42;;;;;;;6.00;2.53;;;;;;;5.82;69.56;98989.25;4359715;32;33793;-87
2020/12/04 10:03:10;;;;;;;3.50;3.10;;;;;;;5.78;69.14;98984.31;4346151;32;35026;-87
2020/12/04 10:05:37;;;;;;;5.30;4.30;;;;;;;5.73;69.86;98984.72;4345503;32;34175;-88
2020/12/04 10:08:04;;;;;;;4.07;3.73;;;;;;;5.86;69.22;98971.31;4359107;32;33750;-87
2020/12/04 10:10:31;;;;;;;2.78;2.50;;;;;;;5.69;70.02;98977.22;4345883;32;34337;-87
2020/12/04 10:12:58;;;;;;;1.83;1.73;;;;;;;5.67;69.60;98981.78;4345829;32;35027;-87
2020/12/04 10:15:26;;;;;;;4.62;3.55;;;;;;;5.54;70.21;98968.81;4333820;32;33681;-86
2020/12/04 10:17:53;;;;;;;4.22;3.33;;;;;;;5.77;69.82;98962.38;4345699;32;33185;-87
2020/12/04 10:20:20;;;;;;;5.05;4.10;;;;;;;5.95;69.05;98958.13;4333924;32;35124;-87
2020/12/04 10:22:47;;;;;;;4.83;2.40;;;;;;;5.78;69.78;98960.56;4345951;32;35682;-88
2020/12/04 10:25:17;;;;;;;2.08;1.95;;;;;;;5.68;70.13;98968.44;4339409;32;34308;-88
2020/12/04 10:27:45;;;;;;;4.95;3.08;;;;;;;5.79;69.58;98957.81;4357353;32;32973;-88
2020/12/04 10:30:16;;;;;;;3.93;3.63;;;;;;;6.18;69.30;98953.47;4353965;32;32839;-85
2020/12/04 10:32:43;;;;;;;4.15;3.10;;;;;;;5.80;70.00;98961.31;4356293;32;35989;-88
2020/12/04 10:35:11;;;;;;;3.83;3.25;;;;;;;6.10;68.88;98942.75;4334224;32;34800;-88
2020/12/04 10:37:38;;;;;;;3.30;2.63;;;;;;;5.99;69.57;98930.50;4358837;32;33162;-89
2020/12/04 10:40:05;;;;;;;6.20;2.08;;;;;;;5.98;69.38;98934.09;4332987;32;32140;-89
2020/12/04 10:42:33;;;;;;;8.05;2.05;;;;;;;6.20;69.31;98936.50;4375499;32;35390;-85
2020/12/04 10:45:00;;;;;;;2.72;2.53;;;;;;;6.39;68.48;98935.66;4340663;32;33629;-89
2020/12/04 10:47:27;;;;;;;1.77;1.67;;;;;;;6.41;68.40;98934.56;4372913;32;34114;-89
2020/12/04 10:49:55;;;;;;;5.20;3.95;;;;;;;6.20;68.39;98947.06;4373387;32;33708;-86
2020/12/04 10:52:22;;;;;;;2.87;2.07;;;;;;;6.13;68.77;98932.75;4360292;32;33990;-89
2020/12/04 10:54:50;;;;;;;;;;;;;;;5.96;69.13;98928.13;4349458;32;35144;-88
2020/12/04 10:57:17;;;;;;;3.70;2.20;;;;;;;6.16;69.05;98929.81;4361269;32;33801;-89
2020/12/04 10:59:44;;;;;;;8.30;4.75;;;;;;;6.04;69.74;98938.00;4348835;32;33344;-87
2020/12/04 11:02:29;;;;;;;7.20;2.80;;;;;;;6.25;68.58;98938.75;4372406;32;33457;-89
2020/12/04 11:07:43;;;;;;;5.57;3.92;;;;;;;6.07;69.85;98940.38;4350949;32;33192;-87
2020/12/04 11:10:12;;;;;;;3.15;2.00;;;;;;;6.39;69.04;98949.72;4348711;32;33629;-87
2020/12/04 11:12:40;;;;;;;3.80;1.70;;;;;;;6.38;68.66;98934.00;4348925;32;34807;-87
2020/12/04 11:15:08;;;;;;;3.92;3.20;;;;;;;6.33;69.09;98934.41;4348169;32;32744;-86
2020/12/04 11:17:38;;;;;;;3.12;2.90;;;;;;;6.56;68.60;98934.97;4336782;32;33237;-85
2020/12/04 11:20:05;;;;;;;3.87;2.37;;;;;;;6.55;68.17;98934.16;4342321;32;33406;-87
2020/12/04 11:22:34;;;;;;;5.82;5.28;;;;;;;6.70;67.75;98924.81;4347805;32;33268;-86
2020/12/04 11:25:02;;;;;;;3.12;2.92;;;;;;;6.49;68.32;98931.22;4335829;32;33321;-86
2020/12/04 11:27:30;;;;;;;5.15;4.50;;;;;;;6.74;67.38;98928.84;4336086;32;32018;-86
2020/12/04 11:29:57;;;;;;;2.62;2.40;;;;;;;6.75;67.27;98924.38;4337644;32;31965;-85
2020/12/04 11:32:24;;;;;;;4.03;3.20;;;;;;;6.48;67.77;98921.63;4376828;32;34873;-86
2020/12/04 11:34:52;;;;;;;2.70;2.50;;;;;;;6.65;67.42;98929.69;4338174;32;33750;-86
2020/12/04 11:37:20;;;;;;;6.20;2.60;;;;;;;6.67;66.95;98929.53;4361660;32;34092;-87
2020/12/04 11:39:49;;;;;;;5.18;3.12;;;;;;;6.56;68.00;98929.69;4331840;33;33596;-87
2020/12/04 11:42:16;;;;;;;3.37;1.83;;;;;;;6.65;67.44;98931.50;4342060;32;34819;-87
2020/12/04 11:44:44;;;;;;;1.60;1.25;;;;;;;7.03;66.42;98944.66;4335578;32;33108;-87
2020/12/04 11:47:11;;;;;;;4.25;3.90;;;;;;;6.75;66.44;98938.44;4348315;32;33702;-87
2020/12/04 11:49:38;;;;;;;1.27;0.90;;;;;;;6.70;66.95;98931.91;4335901;32;31530;-88
2020/12/04 11:52:08;;;;;;;2.37;1.70;;;;;;;6.73;66.73;98918.41;4348412;32;33437;-87
2020/12/04 11:54:35;;;;;;;2.85;2.08;;;;;;;6.73;67.09;98931.63;4347718;32;34831;-87
2020/12/04 11:57:03;;;;;;;4.73;3.30;;;;;;;6.93;66.29;98930.62;4359936;32;31412;-86
2020/12/04 11:59:31;;;;;;;2.87;1.17;;;;;;;6.94;65.99;98932.28;4360684;32;33724;-86
2020/12/04 12:01:58;;;;;;;1.87;1.77;;;;;;;7.02;65.74;98943.81;4360340;32;35846;-87
2020/12/04 12:04:31;;;;;;;1.05;1.00;;;;;;;6.74;66.19;98917.44;4348039;32;34329;-87
2020/12/04 12:07:02;;;;;;;2.58;2.35;;;;;;;6.95;66.61;98942.72;4349249;32;33600;-92
2020/12/04 12:09:30;;;;;;;0.82;0.82;;;;;;;6.98;66.96;98947.72;4360595;32;33980;-90
2020/12/04 12:11:57;;;;;;;3.70;2.90;;;;;;;7.05;66.94;98950.63;4360347;32;35482;-90
2020/12/04 12:14:24;;;;;;;4.20;3.80;;;;;;;7.27;66.83;98948.47;4360186;32;33022;-89
2020/12/04 12:16:53;;;;;;;2.97;2.65;;;;;;;7.35;67.16;98953.06;4347642;32;34688;-89
2020/12/04 12:19:20;;;;;;;2.57;2.30;;;;;;;7.33;67.12;98944.41;4348121;32;32230;-90
2020/12/04 12:21:48;;;;;;;4.87;1.30;;;;;;;7.06;67.54;98957.56;4347965;32;34627;-88
2020/12/04 12:24:16;;;;;;;2.08;1.98;;;;;;;6.88;67.92;98938.16;4347004;32;34228;-89
2020/12/04 12:26:46;;;;;;;2.80;2.47;;;;;;;7.18;67.33;98949.34;4336157;32;34037;-89
2020/12/04 12:29:13;;;;;;;1.98;1.87;;;;;;;7.14;68.15;98944.47;4335985;32;33422;-90
2020/12/04 12:31:41;;;;;;;4.45;2.60;;;;;;;7.12;68.26;98939.34;4347625;32;35189;-89
2020/12/04 12:34:08;;;;;;;1.95;1.48;;;;;;;6.99;68.28;98938.00;4335802;32;34233;-90
2020/12/04 12:36:36;;;;;;;;;;;;;;;6.97;68.19;98940.75;4362389;32;33134;-90
2020/12/04 12:39:04;;;;;;;2.47;1.73;;;;;;;6.92;68.60;98942.16;4376393;32;34586;-89
2020/12/04 12:41:31;;;;;;;11.55;3.17;;;;;;;6.98;69.56;98944.25;4363624;32;35076;-88
2020/12/04 12:43:59;;;;;;;4.80;2.92;;;;;;;7.20;68.46;98943.91;4350647;32;34216;-86
2020/12/04 12:46:26;;;;;;;3.35;2.60;;;;;;;7.11;69.62;98950.06;4357416;32;33135;-89
2020/12/04 12:48:56;;;;;;;;;;;;;;;7.06;69.30;98934.63;4357825;32;33655;-87
2020/12/04 12:51:23;;;;;;;4.65;2.17;;;;;;;7.03;70.44;98940.19;4345294;33;35066;-88
2020/12/04 12:53:51;;;;;;;4.95;4.47;;;;;;;7.48;68.69;98922.66;4345260;32;33554;-88
2020/12/04 12:56:18;;;;;;;3.80;3.42;;;;;;;7.56;68.29;98928.03;4329669;33;31813;-87
2020/12/04 12:58:45;;;;;;;1.77;1.67;;;;;;;7.58;68.08;98934.03;4363427;32;32187;-85
2020/12/04 13:01:16;;;;;;;2.65;1.75;;;;;;;7.33;68.67;98923.25;4325880;33;35065;-86
2020/12/04 13:03:44;;;;;;;4.20;2.10;;;;;;;7.19;69.31;98937.78;4333246;33;34994;-86
2020/12/04 13:06:15;;;;;;;6.37;3.03;;;;;;;7.57;68.36;98937.62;4331878;33;34162;-87
2020/12/04 13:08:43;;;;;;;4.28;2.75;;;;;;;7.68;68.55;98928.66;4329891;33;34144;-87
2020/12/04 13:11:10;;;;;;;4.53;2.05;;;;;;;7.73;68.54;98931.72;4345072;33;34350;-88
2020/12/04 13:13:37;;;;;;;7.82;4.65;;;;;;;7.47;69.08;98941.31;4332685;33;34457;-87
2020/12/04 13:16:04;;;;;;;2.17;1.98;;;;;;;7.71;69.03;98938.94;4357624;32;33515;-86
2020/12/04 13:18:32;;;;;;;5.10;3.15;;;;;;;7.65;68.65;98939.56;4336116;32;34314;-88
2020/12/04 13:20:59;;;;;;;5.82;1.98;;;;;;;7.62;69.52;98938.03;4330591;33;34746;-87
2020/12/04 13:23:27;;;;;;;5.15;2.85;;;;;;;7.47;69.13;98936.03;4356663;32;34211;-87
2020/12/04 13:25:54;;;;;;;2.70;2.50;;;;;;;7.19;71.00;98953.62;4344443;33;33749;-86
2020/12/04 13:28:22;;;;;;;3.47;3.15;;;;;;;7.42;69.73;98957.63;4346226;33;33452;-89
2020/12/04 13:30:49;;;;;;;1.95;1.83;;;;;;;7.37;70.90;98956.41;4344808;32;34255;-88
2020/12/04 13:33:17;;;;;;;3.35;2.28;;;;;;;7.71;69.67;98958.34;4328732;33;32654;-88
2020/12/04 13:35:44;;;;;;;5.50;4.97;;;;;;;7.85;68.92;98951.72;4332769;33;32985;-90
2020/12/04 13:38:11;;;;;;;12.02;5.18;;;;;;;8.10;68.58;98951.84;4331573;33;33119;-88
2020/12/04 13:40:39;;;;;;;4.03;3.57;;;;;;;8.22;68.59;98955.16;4332510;33;35527;-89
2020/12/04 13:43:06;;;;;;;4.57;3.92;;;;;;;8.32;68.03;98958.56;4307079;33;34886;-89